WATT/KOE METAR and TAF weather

Enter ICAO airport designator
Station Type Date Time Source
WATT METAR 2019/06/27 03:00 UTC NOAA

WATT 270300Z 12012KT 9999 FEW020 30/17 Q1013 NOSIG


Station Type Date Time Source
WATT Decoded METAR 2019/06/27 03:00 UTC NOAA

Station name not available
Jun 26, 2019 - 11:00 PM EDT / 2019.06.27 0300 UTC
Wind: from the ESE (120 degrees) at 14 MPH (12 KT):0
Visibility: greater than 7 mile(s):0
Sky conditions: mostly clear
Temperature: 86 F (30 C)
Dew Point: 62 F (17 C)
Relative Humidity: 45%
Pressure (altimeter): 29.91 in. Hg (1013 hPa)
ob: WATT 270300Z 12012KT 9999 FEW020 30/17 Q1013 NOSIG
cycle: 3

Station Type Date Time Source
WATT TAF 2019/06/27 06:00 UTC NOAA

TAF WATT 270500Z 2706/2806 10016KT 9999 FEW020
BECMG 2714/2716 11008KT

Example: see airport list